< Typhoon 195420 1954 Season Typhoon 195422 >
Typhoon 195421 (SALLY)
General InformationTrack Information on Google Maps || Disaster Info.ResourceGoogle EarthGE AnimationAtom FeedGeoJSON
Detalied Best Track (Time Zone = UTC)
Year Month Day Hour Lat. Long. Pressure (hPa) Wind (kt) Class Image Chart
1954 11 12 18 12.9 135.8 1006 0 2 -- Chart
1954 11 13 00 12.7 133.4 980 0 9 -- Chart
1954 11 13 06 12.6 131.9 970 0 9 -- Chart
1954 11 13 12 12.6 131.1 960 0 9 -- Chart
1954 11 13 18 12.6 130.1 960 0 9 -- Chart
1954 11 14 00 12.6 129.3 950 0 9 -- Chart
1954 11 14 06 12.8 129.2 925 0 9 -- Chart
1954 11 14 12 13.0 129.2 925 0 9 -- Chart
1954 11 14 18 13.0 129.1 925 0 9 -- Chart
1954 11 15 00 13.0 128.5 940 0 9 -- Chart
1954 11 15 06 13.1 127.8 940 0 9 -- Chart
1954 11 15 12 13.6 127.4 940 0 9 -- Chart
1954 11 15 18 14.0 126.9 940 0 9 -- Chart
1954 11 16 00 14.5 126.2 940 0 9 -- Chart
1954 11 16 06 15.0 125.6 940 0 9 -- Chart
1954 11 16 12 15.5 124.9 940 0 9 -- Chart
1954 11 16 18 16.0 124.0 930 0 9 -- Chart
1954 11 17 00 16.3 123.5 930 0 9 -- Chart
1954 11 17 06 16.7 123.0 930 0 9 -- Chart
1954 11 17 12 16.8 122.7 950 0 9 -- Chart
1954 11 17 18 17.0 122.6 960 0 9 -- Chart
1954 11 18 00 17.3 122.6 960 0 9 -- Chart
1954 11 18 06 17.7 122.7 970 0 9 -- Chart
1954 11 18 12 18.0 123.3 980 0 9 -- Chart
1954 11 18 18 18.6 124.0 980 0 9 -- Chart
1954 11 19 00 18.9 125.0 990 0 9 -- Chart
1954 11 19 06 19.2 125.6 990 0 9 -- Chart
1954 11 19 12 19.4 126.6 995 0 9 -- Chart
1954 11 19 18 19.7 127.7 1000 0 9 -- Chart
1954 11 20 00 20.0 128.7 1000 0 9 -- Chart
1954 11 20 06 20.9 131.0 1004 0 9 -- Chart
1954 11 20 12 22.1 133.3 1004 0 9 -- Chart
1954 11 20 18 23.5 135.6 1004 0 9 -- Chart
1954 11 21 00 25.3 138.0 1004 0 9 -- Chart
1954 11 21 06 27.1 140.5 1002 0 2 -- Chart
1954 11 21 12 29.3 142.4 1002 0 2 -- Chart
Japan Meteorological Agency Best Track Data | Correction Date : 1989-06-01
< Typhoon 195420 1954 Season Typhoon 195422 >

Help